sensor_id;sensor_type;location;lat;lon;timestamp;temperature;humidity
14192;DHT22;7177;48.572;7.838;2023-05-16T00:00:24;13.70;99.90
14192;DHT22;7177;48.572;7.838;2023-05-16T00:02:50;13.70;99.90
14192;DHT22;7177;48.572;7.838;2023-05-16T00:05:16;13.70;99.90
14192;DHT22;7177;48.572;7.838;2023-05-16T00:07:42;13.70;99.90
14192;DHT22;7177;48.572;7.838;2023-05-16T00:10:09;13.80;99.90
14192;DHT22;7177;48.572;7.838;2023-05-16T00:12:34;13.80;99.90
14192;DHT22;7177;48.572;7.838;2023-05-16T00:15:02;13.80;99.90
14192;DHT22;7177;48.572;7.838;2023-05-16T00:17:29;13.80;99.90
14192;DHT22;7177;48.572;7.838;2023-05-16T00:19:55;13.80;99.90
14192;DHT22;7177;48.572;7.838;2023-05-16T00:22:23;13.70;99.90
14192;DHT22;7177;48.572;7.838;2023-05-16T00:27:15;13.80;99.90
14192;DHT22;7177;48.572;7.838;2023-05-16T00:29:41;13.70;99.90
14192;DHT22;7177;48.572;7.838;2023-05-16T00:32:06;13.70;99.90
14192;DHT22;7177;48.572;7.838;2023-05-16T00:34:33;13.70;99.90
14192;DHT22;7177;48.572;7.838;2023-05-16T00:36:59;13.70;99.90
14192;DHT22;7177;48.572;7.838;2023-05-16T00:39:24;13.70;99.90
14192;DHT22;7177;48.572;7.838;2023-05-16T00:41:50;13.60;99.90
14192;DHT22;7177;48.572;7.838;2023-05-16T00:44:16;13.60;99.90
14192;DHT22;7177;48.572;7.838;2023-05-16T00:46:41;13.50;99.90
14192;DHT22;7177;48.572;7.838;2023-05-16T00:49:08;13.40;99.90
14192;DHT22;7177;48.572;7.838;2023-05-16T00:51:34;13.40;99.90
14192;DHT22;7177;48.572;7.838;2023-05-16T00:54:01;13.50;99.90
14192;DHT22;7177;48.572;7.838;2023-05-16T00:56:27;13.40;99.90
14192;DHT22;7177;48.572;7.838;2023-05-16T00:58:52;13.40;99.90
14192;DHT22;7177;48.572;7.838;2023-05-16T01:01:19;13.40;99.90
14192;DHT22;7177;48.572;7.838;2023-05-16T01:03:48;13.30;99.90
14192;DHT22;7177;48.572;7.838;2023-05-16T01:06:14;13.30;99.90
14192;DHT22;7177;48.572;7.838;2023-05-16T01:08:39;13.30;99.90
14192;DHT22;7177;48.572;7.838;2023-05-16T01:16:43;13.30;99.90
14192;DHT22;7177;48.572;7.838;2023-05-16T01:22:02;13.40;99.90
14192;DHT22;7177;48.572;7.838;2023-05-16T01:24:34;13.40;99.90
14192;DHT22;7177;48.572;7.838;2023-05-16T01:27:05;13.30;99.90
14192;DHT22;7177;48.572;7.838;2023-05-16T01:29:31;13.30;99.90
14192;DHT22;7177;48.572;7.838;2023-05-16T01:31:56;13.20;99.90
14192;DHT22;7177;48.572;7.838;2023-05-16T01:34:23;13.20;99.90
14192;DHT22;7177;48.572;7.838;2023-05-16T01:37:01;13.80;99.90
14192;DHT22;7177;48.572;7.838;2023-05-16T01:40:01;13.00;99.90
14192;DHT22;7177;48.572;7.838;2023-05-16T01:42:33;13.00;99.90
14192;DHT22;7177;48.572;7.838;2023-05-16T01:45:15;13.00;99.90
14192;DHT22;7177;48.572;7.838;2023-05-16T01:47:45;12.90;99.90
14192;DHT22;7177;48.572;7.838;2023-05-16T01:50:15;12.90;99.90
14192;DHT22;7177;48.572;7.838;2023-05-16T01:55:22;12.80;99.90
14192;DHT22;7177;48.572;7.838;2023-05-16T01:57:49;12.80;99.90
14192;DHT22;7177;48.572;7.838;2023-05-16T02:00:16;12.70;99.90
14192;DHT22;7177;48.572;7.838;2023-05-16T02:02:41;12.70;99.90
14192;DHT22;7177;48.572;7.838;2023-05-16T02:05:07;12.60;99.90
14192;DHT22;7177;48.572;7.838;2023-05-16T02:09:59;12.60;99.90
14192;DHT22;7177;48.572;7.838;2023-05-16T02:12:24;12.60;99.90
14192;DHT22;7177;48.572;7.838;2023-05-16T02:14:50;12.60;99.90
14192;DHT22;7177;48.572;7.838;2023-05-16T02:17:15;12.60;99.90
14192;DHT22;7177;48.572;7.838;2023-05-16T02:19:41;12.50;99.90
14192;DHT22;7177;48.572;7.838;2023-05-16T02:22:06;12.50;99.90
14192;DHT22;7177;48.572;7.838;2023-05-16T02:24:32;12.60;99.90
14192;DHT22;7177;48.572;7.838;2023-05-16T02:26:57;12.70;99.90
14192;DHT22;7177;48.572;7.838;2023-05-16T02:29:23;12.70;99.90
14192;DHT22;7177;48.572;7.838;2023-05-16T02:31:48;12.70;99.90
14192;DHT22;7177;48.572;7.838;2023-05-16T02:34:14;12.70;99.90
14192;DHT22;7177;48.572;7.838;2023-05-16T02:36:40;12.70;99.90
14192;DHT22;7177;48.572;7.838;2023-05-16T02:39:05;12.70;99.90
14192;DHT22;7177;48.572;7.838;2023-05-16T02:41:32;12.80;99.90
14192;DHT22;7177;48.572;7.838;2023-05-16T02:43:58;12.80;99.90
14192;DHT22;7177;48.572;7.838;2023-05-16T02:46:29;12.80;99.90
14192;DHT22;7177;48.572;7.838;2023-05-16T02:48:58;12.70;99.90
14192;DHT22;7177;48.572;7.838;2023-05-16T02:51:25;12.80;99.90
14192;DHT22;7177;48.572;7.838;2023-05-16T02:53:52;12.80;99.90
14192;DHT22;7177;48.572;7.838;2023-05-16T02:56:18;12.80;99.90
14192;DHT22;7177;48.572;7.838;2023-05-16T02:58:46;12.90;99.90
14192;DHT22;7177;48.572;7.838;2023-05-16T03:01:13;12.90;99.90
14192;DHT22;7177;48.572;7.838;2023-05-16T03:03:39;12.90;99.90
14192;DHT22;7177;48.572;7.838;2023-05-16T03:06:05;13.00;99.90
14192;DHT22;7177;48.572;7.838;2023-05-16T03:08:30;12.90;99.90
14192;DHT22;7177;48.572;7.838;2023-05-16T03:10:56;12.80;99.90
14192;DHT22;7177;48.572;7.838;2023-05-16T03:13:22;12.80;99.90
14192;DHT22;7177;48.572;7.838;2023-05-16T03:15:48;12.80;99.90
14192;DHT22;7177;48.572;7.838;2023-05-16T03:18:13;12.80;99.90
14192;DHT22;7177;48.572;7.838;2023-05-16T03:20:39;12.70;99.90
14192;DHT22;7177;48.572;7.838;2023-05-16T03:23:04;12.70;99.90
14192;DHT22;7177;48.572;7.838;2023-05-16T03:25:33;12.60;99.90
14192;DHT22;7177;48.572;7.838;2023-05-16T03:28:01;12.60;99.90
14192;DHT22;7177;48.572;7.838;2023-05-16T03:30:26;12.60;99.90
14192;DHT22;7177;48.572;7.838;2023-05-16T03:32:52;12.50;99.90
14192;DHT22;7177;48.572;7.838;2023-05-16T03:35:17;12.50;99.90
14192;DHT22;7177;48.572;7.838;2023-05-16T03:37:43;12.50;99.90
14192;DHT22;7177;48.572;7.838;2023-05-16T03:40:09;12.40;99.90
14192;DHT22;7177;48.572;7.838;2023-05-16T03:42:35;12.40;99.90
14192;DHT22;7177;48.572;7.838;2023-05-16T03:45:00;12.40;99.90
14192;DHT22;7177;48.572;7.838;2023-05-16T03:47:27;12.50;99.90
14192;DHT22;7177;48.572;7.838;2023-05-16T03:49:55;12.40;99.90
14192;DHT22;7177;48.572;7.838;2023-05-16T03:52:21;12.40;99.90
14192;DHT22;7177;48.572;7.838;2023-05-16T03:54:46;12.30;99.90
14192;DHT22;7177;48.572;7.838;2023-05-16T03:57:12;12.30;99.90
14192;DHT22;7177;48.572;7.838;2023-05-16T03:59:38;12.20;99.90
14192;DHT22;7177;48.572;7.838;2023-05-16T04:02:03;12.20;99.90
14192;DHT22;7177;48.572;7.838;2023-05-16T04:04:29;12.20;99.90
14192;DHT22;7177;48.572;7.838;2023-05-16T04:06:55;12.10;99.90
14192;DHT22;7177;48.572;7.838;2023-05-16T04:09:20;12.10;99.90
14192;DHT22;7177;48.572;7.838;2023-05-16T04:11:46;12.10;99.90
14192;DHT22;7177;48.572;7.838;2023-05-16T04:14:11;12.10;99.90
14192;DHT22;7177;48.572;7.838;2023-05-16T04:16:37;12.10;99.90
14192;DHT22;7177;48.572;7.838;2023-05-16T04:19:02;12.20;99.90
14192;DHT22;7177;48.572;7.838;2023-05-16T04:21:28;12.10;99.90
14192;DHT22;7177;48.572;7.838;2023-05-16T04:23:53;12.10;99.90
14192;DHT22;7177;48.572;7.838;2023-05-16T04:26:19;12.10;99.90
14192;DHT22;7177;48.572;7.838;2023-05-16T04:28:46;12.10;99.90
14192;DHT22;7177;48.572;7.838;2023-05-16T04:31:12;12.10;99.90
14192;DHT22;7177;48.572;7.838;2023-05-16T04:33:38;12.10;99.90
14192;DHT22;7177;48.572;7.838;2023-05-16T04:36:04;12.20;99.90
14192;DHT22;7177;48.572;7.838;2023-05-16T04:38:30;12.30;99.90
14192;DHT22;7177;48.572;7.838;2023-05-16T04:40:57;12.50;99.90
14192;DHT22;7177;48.572;7.838;2023-05-16T04:43:22;12.60;99.90
14192;DHT22;7177;48.572;7.838;2023-05-16T04:45:48;12.70;99.90
14192;DHT22;7177;48.572;7.838;2023-05-16T04:48:13;12.70;99.90
14192;DHT22;7177;48.572;7.838;2023-05-16T04:50:39;12.70;99.90
14192;DHT22;7177;48.572;7.838;2023-05-16T04:53:05;12.60;99.90
14192;DHT22;7177;48.572;7.838;2023-05-16T04:55:31;12.50;99.90
14192;DHT22;7177;48.572;7.838;2023-05-16T04:57:56;12.30;99.90
14192;DHT22;7177;48.572;7.838;2023-05-16T05:00:22;12.20;99.90
14192;DHT22;7177;48.572;7.838;2023-05-16T05:02:47;12.20;99.90
14192;DHT22;7177;48.572;7.838;2023-05-16T05:05:13;12.10;99.90
14192;DHT22;7177;48.572;7.838;2023-05-16T05:07:38;12.10;99.90
14192;DHT22;7177;48.572;7.838;2023-05-16T05:10:05;12.00;99.90
14192;DHT22;7177;48.572;7.838;2023-05-16T05:12:32;12.00;99.90
14192;DHT22;7177;48.572;7.838;2023-05-16T05:14:57;12.10;99.90
14192;DHT22;7177;48.572;7.838;2023-05-16T05:17:23;12.20;99.90
14192;DHT22;7177;48.572;7.838;2023-05-16T05:19:49;12.10;99.90
14192;DHT22;7177;48.572;7.838;2023-05-16T05:22:14;12.10;99.90
14192;DHT22;7177;48.572;7.838;2023-05-16T05:24:40;12.10;99.90
14192;DHT22;7177;48.572;7.838;2023-05-16T05:27:06;12.10;99.90
14192;DHT22;7177;48.572;7.838;2023-05-16T05:29:31;12.10;99.90
14192;DHT22;7177;48.572;7.838;2023-05-16T05:31:57;12.20;99.90
14192;DHT22;7177;48.572;7.838;2023-05-16T05:34:22;12.20;99.90
14192;DHT22;7177;48.572;7.838;2023-05-16T05:36:48;12.20;99.90
14192;DHT22;7177;48.572;7.838;2023-05-16T05:39:13;12.20;99.90
14192;DHT22;7177;48.572;7.838;2023-05-16T05:41:39;12.20;99.90
14192;DHT22;7177;48.572;7.838;2023-05-16T05:44:05;12.20;99.90
14192;DHT22;7177;48.572;7.838;2023-05-16T05:46:31;12.20;99.90
14192;DHT22;7177;48.572;7.838;2023-05-16T05:48:58;12.20;99.90
14192;DHT22;7177;48.572;7.838;2023-05-16T05:51:24;12.30;99.90
14192;DHT22;7177;48.572;7.838;2023-05-16T05:53:50;12.30;99.90
14192;DHT22;7177;48.572;7.838;2023-05-16T05:56:16;12.30;99.90
14192;DHT22;7177;48.572;7.838;2023-05-16T05:58:41;12.30;99.90
14192;DHT22;7177;48.572;7.838;2023-05-16T06:01:10;12.20;99.90
14192;DHT22;7177;48.572;7.838;2023-05-16T06:03:35;12.20;99.90
14192;DHT22;7177;48.572;7.838;2023-05-16T06:06:01;12.20;99.90
14192;DHT22;7177;48.572;7.838;2023-05-16T06:08:26;12.30;99.90
14192;DHT22;7177;48.572;7.838;2023-05-16T06:10:52;12.30;99.90
14192;DHT22;7177;48.572;7.838;2023-05-16T06:13:18;12.30;99.90
14192;DHT22;7177;48.572;7.838;2023-05-16T06:15:43;12.30;99.90
14192;DHT22;7177;48.572;7.838;2023-05-16T06:18:13;12.20;99.90
14192;DHT22;7177;48.572;7.838;2023-05-16T06:20:39;12.30;99.90
14192;DHT22;7177;48.572;7.838;2023-05-16T06:23:04;12.30;99.90
14192;DHT22;7177;48.572;7.838;2023-05-16T06:25:30;12.20;99.90
14192;DHT22;7177;48.572;7.838;2023-05-16T06:27:56;12.20;99.90
14192;DHT22;7177;48.572;7.838;2023-05-16T06:30:21;12.50;99.90
14192;DHT22;7177;48.572;7.838;2023-05-16T06:32:47;12.60;99.90
14192;DHT22;7177;48.572;7.838;2023-05-16T06:35:13;12.70;99.90
14192;DHT22;7177;48.572;7.838;2023-05-16T06:37:38;12.60;99.90
14192;DHT22;7177;48.572;7.838;2023-05-16T06:40:04;12.50;99.90
14192;DHT22;7177;48.572;7.838;2023-05-16T06:42:30;12.50;99.90
14192;DHT22;7177;48.572;7.838;2023-05-16T06:44:55;12.50;99.90
14192;DHT22;7177;48.572;7.838;2023-05-16T06:47:21;12.50;99.90
14192;DHT22;7177;48.572;7.838;2023-05-16T06:49:47;12.50;99.90
14192;DHT22;7177;48.572;7.838;2023-05-16T06:52:12;12.40;99.90
14192;DHT22;7177;48.572;7.838;2023-05-16T06:54:38;12.40;99.90
14192;DHT22;7177;48.572;7.838;2023-05-16T06:57:03;12.40;99.90
14192;DHT22;7177;48.572;7.838;2023-05-16T06:59:29;12.40;99.90
14192;DHT22;7177;48.572;7.838;2023-05-16T07:01:55;12.40;99.90
14192;DHT22;7177;48.572;7.838;2023-05-16T07:04:20;12.40;99.90
14192;DHT22;7177;48.572;7.838;2023-05-16T07:06:46;12.40;99.90
14192;DHT22;7177;48.572;7.838;2023-05-16T07:09:11;12.40;99.90
14192;DHT22;7177;48.572;7.838;2023-05-16T07:11:37;12.40;99.90
14192;DHT22;7177;48.572;7.838;2023-05-16T07:14:02;12.40;99.90
14192;DHT22;7177;48.572;7.838;2023-05-16T07:16:28;12.40;99.90
14192;DHT22;7177;48.572;7.838;2023-05-16T07:18:53;12.40;99.90
14192;DHT22;7177;48.572;7.838;2023-05-16T07:21:19;12.40;99.90
14192;DHT22;7177;48.572;7.838;2023-05-16T07:23:44;12.40;99.90
14192;DHT22;7177;48.572;7.838;2023-05-16T07:26:11;12.40;99.90
14192;DHT22;7177;48.572;7.838;2023-05-16T07:28:36;12.50;99.90
14192;DHT22;7177;48.572;7.838;2023-05-16T07:31:01;12.50;99.90
14192;DHT22;7177;48.572;7.838;2023-05-16T07:33:27;12.50;99.90
14192;DHT22;7177;48.572;7.838;2023-05-16T07:35:52;12.50;99.90
14192;DHT22;7177;48.572;7.838;2023-05-16T07:38:20;12.50;99.90
14192;DHT22;7177;48.572;7.838;2023-05-16T07:40:45;12.50;99.90
14192;DHT22;7177;48.572;7.838;2023-05-16T07:43:11;12.50;99.90
14192;DHT22;7177;48.572;7.838;2023-05-16T07:45:37;12.50;99.90
14192;DHT22;7177;48.572;7.838;2023-05-16T07:48:02;12.60;99.90
14192;DHT22;7177;48.572;7.838;2023-05-16T07:50:28;12.60;99.90
14192;DHT22;7177;48.572;7.838;2023-05-16T07:52:53;12.60;99.90
14192;DHT22;7177;48.572;7.838;2023-05-16T07:55:19;12.60;99.90
14192;DHT22;7177;48.572;7.838;2023-05-16T07:57:46;12.50;99.90
14192;DHT22;7177;48.572;7.838;2023-05-16T08:00:12;12.50;99.90
14192;DHT22;7177;48.572;7.838;2023-05-16T08:02:39;12.50;99.90
14192;DHT22;7177;48.572;7.838;2023-05-16T08:05:05;12.60;99.90
14192;DHT22;7177;48.572;7.838;2023-05-16T08:07:31;12.60;99.90
14192;DHT22;7177;48.572;7.838;2023-05-16T08:09:57;12.60;99.90
14192;DHT22;7177;48.572;7.838;2023-05-16T08:12:23;12.60;99.90
14192;DHT22;7177;48.572;7.838;2023-05-16T08:14:49;12.60;99.90
14192;DHT22;7177;48.572;7.838;2023-05-16T08:17:14;12.70;99.90
14192;DHT22;7177;48.572;7.838;2023-05-16T08:19:40;12.80;99.90
14192;DHT22;7177;48.572;7.838;2023-05-16T08:22:06;12.80;99.90
14192;DHT22;7177;48.572;7.838;2023-05-16T08:24:33;12.90;99.90
14192;DHT22;7177;48.572;7.838;2023-05-16T08:26:59;12.90;99.90
14192;DHT22;7177;48.572;7.838;2023-05-16T08:29:24;12.90;99.90
14192;DHT22;7177;48.572;7.838;2023-05-16T08:31:50;12.90;99.90
14192;DHT22;7177;48.572;7.838;2023-05-16T08:34:16;12.80;99.90
14192;DHT22;7177;48.572;7.838;2023-05-16T08:36:42;12.80;99.90
14192;DHT22;7177;48.572;7.838;2023-05-16T08:39:07;12.70;99.90
14192;DHT22;7177;48.572;7.838;2023-05-16T08:41:36;12.70;99.90
14192;DHT22;7177;48.572;7.838;2023-05-16T08:44:02;12.60;99.90
14192;DHT22;7177;48.572;7.838;2023-05-16T08:46:28;12.60;99.90
14192;DHT22;7177;48.572;7.838;2023-05-16T08:49:00;12.60;99.90
14192;DHT22;7177;48.572;7.838;2023-05-16T08:51:31;12.70;99.90
14192;DHT22;7177;48.572;7.838;2023-05-16T08:54:03;12.70;99.90
14192;DHT22;7177;48.572;7.838;2023-05-16T08:56:33;12.70;99.90
14192;DHT22;7177;48.572;7.838;2023-05-16T08:58:59;12.70;99.90
14192;DHT22;7177;48.572;7.838;2023-05-16T09:01:25;12.70;99.90
14192;DHT22;7177;48.572;7.838;2023-05-16T09:03:51;12.60;99.90
14192;DHT22;7177;48.572;7.838;2023-05-16T09:06:17;12.60;99.90
14192;DHT22;7177;48.572;7.838;2023-05-16T09:08:43;12.60;99.90
14192;DHT22;7177;48.572;7.838;2023-05-16T09:11:09;12.60;99.90
14192;DHT22;7177;48.572;7.838;2023-05-16T09:13:35;12.60;99.90
14192;DHT22;7177;48.572;7.838;2023-05-16T09:16:27;12.70;99.90
14192;DHT22;7177;48.572;7.838;2023-05-16T09:18:54;12.60;99.90
14192;DHT22;7177;48.572;7.838;2023-05-16T09:21:21;12.60;99.90
14192;DHT22;7177;48.572;7.838;2023-05-16T09:23:50;12.60;99.90
14192;DHT22;7177;48.572;7.838;2023-05-16T09:26:15;12.60;99.90
14192;DHT22;7177;48.572;7.838;2023-05-16T09:28:42;12.60;99.90
14192;DHT22;7177;48.572;7.838;2023-05-16T09:31:22;12.70;99.90
14192;DHT22;7177;48.572;7.838;2023-05-16T09:33:55;12.70;99.90
14192;DHT22;7177;48.572;7.838;2023-05-16T09:36:20;12.70;99.90
14192;DHT22;7177;48.572;7.838;2023-05-16T09:38:46;12.70;99.90
14192;DHT22;7177;48.572;7.838;2023-05-16T09:41:12;12.80;99.90
14192;DHT22;7177;48.572;7.838;2023-05-16T09:43:39;12.90;99.90
14192;DHT22;7177;48.572;7.838;2023-05-16T09:48:31;13.00;99.90
14192;DHT22;7177;48.572;7.838;2023-05-16T09:50:57;13.00;99.90
14192;DHT22;7177;48.572;7.838;2023-05-16T09:53:32;13.10;99.90
14192;DHT22;7177;48.572;7.838;2023-05-16T09:58:31;13.30;99.90
14192;DHT22;7177;48.572;7.838;2023-05-16T10:00:57;13.40;99.90
14192;DHT22;7177;48.572;7.838;2023-05-16T10:03:25;13.20;99.90
14192;DHT22;7177;48.572;7.838;2023-05-16T10:05:51;13.20;99.90
14192;DHT22;7177;48.572;7.838;2023-05-16T10:08:30;13.20;99.90
14192;DHT22;7177;48.572;7.838;2023-05-16T10:10:56;13.20;99.90
14192;DHT22;7177;48.572;7.838;2023-05-16T10:13:23;13.10;99.90
14192;DHT22;7177;48.572;7.838;2023-05-16T10:15:54;12.90;99.90
14192;DHT22;7177;48.572;7.838;2023-05-16T10:18:21;12.90;99.90
14192;DHT22;7177;48.572;7.838;2023-05-16T10:20:50;12.90;99.90
14192;DHT22;7177;48.572;7.838;2023-05-16T10:23:19;12.70;99.90
14192;DHT22;7177;48.572;7.838;2023-05-16T10:25:46;12.60;99.90
14192;DHT22;7177;48.572;7.838;2023-05-16T10:28:13;12.60;99.90
14192;DHT22;7177;48.572;7.838;2023-05-16T10:30:42;12.50;99.90
14192;DHT22;7177;48.572;7.838;2023-05-16T10:33:15;12.40;99.90
14192;DHT22;7177;48.572;7.838;2023-05-16T10:35:42;12.40;99.90
14192;DHT22;7177;48.572;7.838;2023-05-16T10:38:09;12.50;99.90
14192;DHT22;7177;48.572;7.838;2023-05-16T10:40:38;12.50;99.90
14192;DHT22;7177;48.572;7.838;2023-05-16T10:43:05;12.60;99.90
14192;DHT22;7177;48.572;7.838;2023-05-16T10:45:31;12.60;99.90
14192;DHT22;7177;48.572;7.838;2023-05-16T10:48:02;12.60;99.90
14192;DHT22;7177;48.572;7.838;2023-05-16T10:50:37;12.60;99.90
14192;DHT22;7177;48.572;7.838;2023-05-16T10:58:41;12.50;99.90
14192;DHT22;7177;48.572;7.838;2023-05-16T11:01:25;12.50;99.90
14192;DHT22;7177;48.572;7.838;2023-05-16T11:04:11;12.40;99.90
14192;DHT22;7177;48.572;7.838;2023-05-16T11:09:06;12.40;99.90
14192;DHT22;7177;48.572;7.838;2023-05-16T11:14:07;12.20;99.90
14192;DHT22;7177;48.572;7.838;2023-05-16T11:16:33;12.30;99.90
14192;DHT22;7177;48.572;7.838;2023-05-16T11:19:04;12.20;99.90
14192;DHT22;7177;48.572;7.838;2023-05-16T11:22:05;12.20;99.90
14192;DHT22;7177;48.572;7.838;2023-05-16T11:24:32;12.30;99.90
14192;DHT22;7177;48.572;7.838;2023-05-16T11:26:59;12.30;99.90
14192;DHT22;7177;48.572;7.838;2023-05-16T11:29:28;12.40;99.90
14192;DHT22;7177;48.572;7.838;2023-05-16T11:31:57;12.30;99.90
14192;DHT22;7177;48.572;7.838;2023-05-16T11:34:23;12.40;99.90
14192;DHT22;7177;48.572;7.838;2023-05-16T11:36:49;12.30;99.90
14192;DHT22;7177;48.572;7.838;2023-05-16T11:39:14;12.30;99.90
14192;DHT22;7177;48.572;7.838;2023-05-16T11:41:40;12.30;99.90
14192;DHT22;7177;48.572;7.838;2023-05-16T11:44:05;12.30;99.90
14192;DHT22;7177;48.572;7.838;2023-05-16T11:46:32;12.30;99.90
14192;DHT22;7177;48.572;7.838;2023-05-16T11:48:58;12.20;99.90
14192;DHT22;7177;48.572;7.838;2023-05-16T11:51:23;12.20;99.90
14192;DHT22;7177;48.572;7.838;2023-05-16T11:53:49;12.20;99.90
14192;DHT22;7177;48.572;7.838;2023-05-16T11:56:15;12.20;99.90
14192;DHT22;7177;48.572;7.838;2023-05-16T11:58:41;12.20;99.90
14192;DHT22;7177;48.572;7.838;2023-05-16T12:01:06;12.30;99.90
14192;DHT22;7177;48.572;7.838;2023-05-16T12:06:01;12.20;99.90
14192;DHT22;7177;48.572;7.838;2023-05-16T12:08:27;12.20;99.90
14192;DHT22;7177;48.572;7.838;2023-05-16T12:10:53;12.30;99.90
14192;DHT22;7177;48.572;7.838;2023-05-16T12:13:20;13.80;99.90
14192;DHT22;7177;48.572;7.838;2023-05-16T12:15:47;12.40;99.90
14192;DHT22;7177;48.572;7.838;2023-05-16T12:18:13;12.40;99.90
14192;DHT22;7177;48.572;7.838;2023-05-16T12:20:39;12.40;99.90
14192;DHT22;7177;48.572;7.838;2023-05-16T12:23:09;12.50;99.90
14192;DHT22;7177;48.572;7.838;2023-05-16T12:25:35;12.40;99.90
14192;DHT22;7177;48.572;7.838;2023-05-16T12:28:03;12.30;99.90
14192;DHT22;7177;48.572;7.838;2023-05-16T12:30:30;12.30;99.90
14192;DHT22;7177;48.572;7.838;2023-05-16T12:33:07;12.20;99.90
14192;DHT22;7177;48.572;7.838;2023-05-16T12:35:34;12.30;99.90
14192;DHT22;7177;48.572;7.838;2023-05-16T12:38:05;12.20;99.90
14192;DHT22;7177;48.572;7.838;2023-05-16T12:42:57;12.10;99.90
14192;DHT22;7177;48.572;7.838;2023-05-16T12:45:25;12.00;99.90
14192;DHT22;7177;48.572;7.838;2023-05-16T12:47:52;12.00;99.90
14192;DHT22;7177;48.572;7.838;2023-05-16T12:50:17;12.00;99.90
14192;DHT22;7177;48.572;7.838;2023-05-16T12:52:51;12.00;99.90
14192;DHT22;7177;48.572;7.838;2023-05-16T12:55:18;12.00;99.90
14192;DHT22;7177;48.572;7.838;2023-05-16T12:57:45;12.00;99.90
14192;DHT22;7177;48.572;7.838;2023-05-16T13:00:13;11.90;99.90
14192;DHT22;7177;48.572;7.838;2023-05-16T13:02:39;11.90;99.90
14192;DHT22;7177;48.572;7.838;2023-05-16T13:05:05;11.90;99.90
14192;DHT22;7177;48.572;7.838;2023-05-16T13:07:32;11.90;99.90
14192;DHT22;7177;48.572;7.838;2023-05-16T13:09:58;12.00;99.90
14192;DHT22;7177;48.572;7.838;2023-05-16T13:12:23;12.00;99.90
14192;DHT22;7177;48.572;7.838;2023-05-16T13:14:54;11.90;99.90
14192;DHT22;7177;48.572;7.838;2023-05-16T13:17:20;12.00;99.90
14192;DHT22;7177;48.572;7.838;2023-05-16T13:22:12;12.00;99.90
14192;DHT22;7177;48.572;7.838;2023-05-16T13:24:37;12.10;99.90
14192;DHT22;7177;48.572;7.838;2023-05-16T13:27:03;12.00;99.90
14192;DHT22;7177;48.572;7.838;2023-05-16T13:31:55;12.10;99.90
14192;DHT22;7177;48.572;7.838;2023-05-16T13:34:20;12.10;99.90
14192;DHT22;7177;48.572;7.838;2023-05-16T13:36:46;12.10;99.90
14192;DHT22;7177;48.572;7.838;2023-05-16T13:39:13;12.10;99.90
14192;DHT22;7177;48.572;7.838;2023-05-16T13:41:39;12.10;99.90
14192;DHT22;7177;48.572;7.838;2023-05-16T13:44:05;12.20;99.90
14192;DHT22;7177;48.572;7.838;2023-05-16T13:46:31;12.40;99.90
14192;DHT22;7177;48.572;7.838;2023-05-16T13:48:56;12.50;99.90
14192;DHT22;7177;48.572;7.838;2023-05-16T13:51:22;12.40;99.90
14192;DHT22;7177;48.572;7.838;2023-05-16T13:53:47;12.40;99.90
14192;DHT22;7177;48.572;7.838;2023-05-16T13:56:13;12.40;99.90
14192;DHT22;7177;48.572;7.838;2023-05-16T13:58:38;12.40;99.90
14192;DHT22;7177;48.572;7.838;2023-05-16T14:03:30;12.60;99.90
14192;DHT22;7177;48.572;7.838;2023-05-16T14:05:56;12.60;99.90
14192;DHT22;7177;48.572;7.838;2023-05-16T14:08:21;12.60;99.90
14192;DHT22;7177;48.572;7.838;2023-05-16T14:10:47;12.60;99.90
14192;DHT22;7177;48.572;7.838;2023-05-16T14:13:13;12.60;99.90
14192;DHT22;7177;48.572;7.838;2023-05-16T14:15:38;12.60;99.90
14192;DHT22;7177;48.572;7.838;2023-05-16T14:18:04;12.70;99.90
14192;DHT22;7177;48.572;7.838;2023-05-16T14:20:30;12.60;99.90
14192;DHT22;7177;48.572;7.838;2023-05-16T14:22:56;12.70;99.90
14192;DHT22;7177;48.572;7.838;2023-05-16T14:25:21;12.60;99.90
14192;DHT22;7177;48.572;7.838;2023-05-16T14:27:47;12.50;99.90
14192;DHT22;7177;48.572;7.838;2023-05-16T14:30:15;12.40;99.90
14192;DHT22;7177;48.572;7.838;2023-05-16T14:32:40;12.40;99.90
14192;DHT22;7177;48.572;7.838;2023-05-16T14:35:06;12.30;99.90
14192;DHT22;7177;48.572;7.838;2023-05-16T14:39:59;12.50;99.90
14192;DHT22;7177;48.572;7.838;2023-05-16T14:44:51;12.50;99.90
14192;DHT22;7177;48.572;7.838;2023-05-16T14:47:17;12.50;99.90
14192;DHT22;7177;48.572;7.838;2023-05-16T14:49:42;12.50;99.90
14192;DHT22;7177;48.572;7.838;2023-05-16T14:52:08;12.40;99.90
14192;DHT22;7177;48.572;7.838;2023-05-16T14:56:59;12.70;99.90
14192;DHT22;7177;48.572;7.838;2023-05-16T14:59:26;12.70;99.90
14192;DHT22;7177;48.572;7.838;2023-05-16T15:01:51;12.70;99.90
14192;DHT22;7177;48.572;7.838;2023-05-16T15:04:17;12.80;99.90
14192;DHT22;7177;48.572;7.838;2023-05-16T15:06:42;12.80;99.90
14192;DHT22;7177;48.572;7.838;2023-05-16T15:09:08;12.90;99.90
14192;DHT22;7177;48.572;7.838;2023-05-16T15:13:59;13.00;99.90
14192;DHT22;7177;48.572;7.838;2023-05-16T15:16:26;12.90;99.90
14192;DHT22;7177;48.572;7.838;2023-05-16T15:18:51;13.00;99.90
14192;DHT22;7177;48.572;7.838;2023-05-16T15:21:17;13.00;99.90
14192;DHT22;7177;48.572;7.838;2023-05-16T15:23:43;13.00;99.90
14192;DHT22;7177;48.572;7.838;2023-05-16T15:26:08;13.10;99.90
14192;DHT22;7177;48.572;7.838;2023-05-16T15:28:37;13.20;99.90
14192;DHT22;7177;48.572;7.838;2023-05-16T15:31:03;13.20;99.90
14192;DHT22;7177;48.572;7.838;2023-05-16T15:33:31;13.20;99.90
14192;DHT22;7177;48.572;7.838;2023-05-16T15:35:57;13.20;99.90
14192;DHT22;7177;48.572;7.838;2023-05-16T15:38:22;13.20;99.90
14192;DHT22;7177;48.572;7.838;2023-05-16T15:40:48;13.30;99.90
14192;DHT22;7177;48.572;7.838;2023-05-16T15:43:13;13.40;99.90
14192;DHT22;7177;48.572;7.838;2023-05-16T15:45:39;13.40;99.90
14192;DHT22;7177;48.572;7.838;2023-05-16T15:48:04;13.50;99.90
14192;DHT22;7177;48.572;7.838;2023-05-16T15:50:30;13.50;99.90
14192;DHT22;7177;48.572;7.838;2023-05-16T15:52:55;13.50;99.90
14192;DHT22;7177;48.572;7.838;2023-05-16T15:55:22;13.50;99.90
14192;DHT22;7177;48.572;7.838;2023-05-16T15:57:48;13.50;99.90
14192;DHT22;7177;48.572;7.838;2023-05-16T16:00:14;13.60;99.90
14192;DHT22;7177;48.572;7.838;2023-05-16T16:02:40;13.80;99.90
14192;DHT22;7177;48.572;7.838;2023-05-16T16:05:07;13.80;99.90
14192;DHT22;7177;48.572;7.838;2023-05-16T16:07:33;13.80;99.90
14192;DHT22;7177;48.572;7.838;2023-05-16T16:09:58;13.80;99.90
14192;DHT22;7177;48.572;7.838;2023-05-16T16:12:24;13.90;99.90
14192;DHT22;7177;48.572;7.838;2023-05-16T16:14:49;14.00;99.90
14192;DHT22;7177;48.572;7.838;2023-05-16T16:17:16;14.00;99.90
14192;DHT22;7177;48.572;7.838;2023-05-16T16:19:41;14.00;99.90
14192;DHT22;7177;48.572;7.838;2023-05-16T16:22:07;13.90;99.90
14192;DHT22;7177;48.572;7.838;2023-05-16T16:24:32;13.90;99.90
14192;DHT22;7177;48.572;7.838;2023-05-16T16:26:58;14.00;99.90
14192;DHT22;7177;48.572;7.838;2023-05-16T16:29:24;14.00;99.90
14192;DHT22;7177;48.572;7.838;2023-05-16T16:31:50;13.90;99.90
14192;DHT22;7177;48.572;7.838;2023-05-16T16:34:17;13.90;99.90